(°C)
-4°
-4°
-5°
-5°
-6°
-6°
-7°
(°C)
-12°
-12°
-12°
-13°
-13°
-14°
-14°
BGB
B
B
B
B
B
B
(km/saat)
24-37
23-37
23-38
23-39
22-38
22-36
22-35
(mm)
1
1
0
0
0
0
0
(%)
25
25
16
9
3
2
2

Güneşin açısı

/ -17.9°
sun-icon
UV 0
08:32
16:07
Hilal Şişkin (320°)
03:58
14:50

55.6°K 37.27°D (UUWW) için METAR

Zaman Koşullar Sıcaklık/
Çiy noktası
Rüzgar Görünürlük Hava Bulutlar Basınç Değiştir Ham
MVFR -4°C / -7°C 240º 10kt >10km Light Snow 1.00mm precipitation Vertical Visibility of 0ft. 990 Temporary: Visibility 1500. Showers Snow . Broken Clouds 1200ft. Cumulonimbus . Runway 19: Dry snow, 11-25% contamination with 5mm, friction coefficient 0.37. UUWW 011500Z 24005MPS 9999 -SN BKN016 M04/M07 Q0990 R19/420537 TEMPO 1500 SHSN BKN012CB
MVFR -4°C / -7°C 240º 10kt 9000m Light Snow 1.00mm precipitation Vertical Visibility of 0ft. 989 Temporary: Visibility 1500. Showers Snow . Broken Clouds 1200ft. Cumulonimbus . Runway 19: Dry snow, 11-25% contamination with 5mm, friction coefficient 0.37. UUWW 011430Z 24005MPS 9000 -SN BKN019 M04/M07 Q0989 R19/420537 TEMPO 1500 SHSN BKN012CB
MVFR -4°C / -7°C 240º 14kt 9000m Light Snow 1.00mm precipitation Vertical Visibility of 0ft. 989 Temporary: Visibility 1500. Showers Snow . Broken Clouds 1200ft. Cumulonimbus . Runway 24: Dry snow, 11-25% contamination with 5mm, friction coefficient 0.37. UUWW 011400Z 24007MPS 9000 -SN BKN030 M04/M07 Q0989 R24/420537 TEMPO 1500 SHSN BKN012CB
MVFR -4°C / -7°C 240º 14kt 8000m Light Snow 1.00mm precipitation Vertical Visibility of 0ft. 989 Temporary: Visibility 1500. Showers Snow . Broken Clouds 1200ft. Cumulonimbus . Runway 24: Dry snow, 11-25% contamination with 5mm, friction coefficient 0.37. UUWW 011330Z 24007MPS 8000 -SN BKN031 M04/M07 Q0989 R24/420537 TEMPO 1500 SHSN BKN012CB
MVFR -4°C / -7°C 240º 14kt >10km Light Snow 1.00mm precipitation Vertical Visibility of 0ft. 988 No Significant change. Runway 24: Dry snow, 11-25% contamination with 5mm, friction coefficient 0.37. UUWW 011300Z 24007MPS 9999 -SN BKN016 M04/M07 Q0988 R24/420537 NOSIG
MVFR -4°C / -7°C 240º 14kt >10km - Broken Clouds 1900ft 988 No Significant change. Runway 24: Dry snow, 11-25% contamination with 5mm, friction coefficient 0.37. UUWW 011230Z 24007MPS 9999 BKN019 M04/M07 Q0988 R24/420537 NOSIG
MVFR -4°C / -7°C 240º 14kt >10km Light Snow 1.00mm precipitation Vertical Visibility of 0ft. 988 No Significant change. Runway 24: Dry snow, 11-25% contamination with 5mm, friction coefficient 0.37. UUWW 011200Z 24007MPS 9999 -SN OVC021 M04/M07 Q0988 R24/420537 NOSIG
VFR -4°C / -7°C 250º 10kt 9000m Light Snow 1.00mm precipitation Vertical Visibility of 0ft. 987 Temporary: Visibility 1100. Showers Snow . Broken Clouds 1200ft. Cumulonimbus . Runway 19: Dry snow, 26-50% contamination with 5mm, friction coefficient 0.37. UUWW 011130Z 25005MPS 9000 -SN OVC034 M04/M07 Q0987 R19/450537 TEMPO 1100 SHSN BKN012CB
MVFR -3°C / -6°C 240º 10kt 9000m Light Snow 1.00mm precipitation Vertical Visibility of 0ft. 987 Temporary: Visibility 1100. Showers Snow . Broken Clouds 1200ft. Cumulonimbus . Runway 19: Dry snow, 26-50% contamination with 5mm, friction coefficient 0.37. UUWW 011100Z 24005MPS 9000 -SN OVC018 M03/M06 Q0987 R19/450537 TEMPO 1100 SHSN BKN012CB
MVFR -3°C / -6°C 230º 14kt 8000m Light Snow 1.00mm precipitation Vertical Visibility of 0ft. 987 Temporary: Visibility 1100. Showers Snow . Broken Clouds 1200ft. Cumulonimbus . Runway 19: Dry snow, 26-50% contamination with 5mm, friction coefficient 0.37. UUWW 011030Z 23007MPS 8000 -SN OVC017 M03/M06 Q0987 R19/450537 TEMPO 1100 SHSN BKN012CB
MVFR -3°C / -6°C 240º 12kt 8000m Light Snow 1.00mm precipitation Vertical Visibility of 0ft. 987 Temporary: Visibility 1100. Showers Snow . Broken Clouds 1200ft. Cumulonimbus . Runway 19: Dry snow, 26-50% contamination with 5mm, friction coefficient 0.37. UUWW 011000Z 24006MPS 8000 -SN OVC018 M03/M06 Q0987 R19/450537 TEMPO 1100 SHSN BKN012CB
MVFR -3°C / -6°C 230º 12kt 5000m Light Snow 1.00mm precipitation Vertical Visibility of 0ft. 987 Temporary: Visibility 1100. Showers Snow . Broken Clouds 1200ft. Cumulonimbus . Runway 19: Dry snow, 26-50% contamination with 5mm, friction coefficient 0.37. UUWW 010930Z 23006MPS 5000 -SN OVC017 M03/M06 Q0987 R19/450537 TEMPO 1100 SHSN BKN012CB
MVFR -3°C / -6°C 230º 10kt 4900m Light Snow 1.00mm precipitation Vertical Visibility of 0ft. 986 Temporary: Visibility 1100. Showers Snow . Broken Clouds 1200ft. Cumulonimbus . Runway 19: Dry snow, 26-50% contamination with 5mm, friction coefficient 0.37. UUWW 010900Z 23005MPS 4900 -SN OVC017 M03/M06 Q0986 R19/450537 TEMPO 1100 SHSN BKN012CB
IFR -3°C / -6°C 230º 14kt 2800m Light Snow 1.00mm precipitation Vertical Visibility of 0ft. 986 Temporary: Visibility 1100. Showers Snow . Broken Clouds 1200ft. Cumulonimbus . Runway 24: Dry snow, 26-50% contamination with 5mm, friction coefficient 0.35. UUWW 010830Z 23007MPS 2800 -SN BKN011 M03/M06 Q0986 R24/450535 TEMPO 1100 SHSN BKN012CB
IFR -3°C / -5°C 230º 12kt 2300m Light Snow 1.00mm precipitation Vertical Visibility of 0ft. 986 Temporary: Visibility 1100. Showers Snow . Broken Clouds 1200ft. Cumulonimbus . Runway 24: Dry snow, 26-50% contamination with 5mm, friction coefficient 0.35. UUWW 010800Z 23006MPS 2300 -SN BKN013 M03/M05 Q0986 R24/450535 TEMPO 1100 SHSN BKN012CB
IFR -3°C / -5°C 230º 12kt 2200m Light Snow 1.00mm precipitation Vertical Visibility of 0ft. 986 Temporary: Visibility 1100. Showers Snow . Broken Clouds 1200ft. Cumulonimbus . Runway 24: Dry snow, 26-50% contamination with 5mm, friction coefficient 0.35. UUWW 010730Z 23006MPS 2200 -SN BKN033 M03/M05 Q0986 R24/450535 TEMPO 1100 SHSN BKN012CB
IFR -4°C / -5°C 220º 12kt 2700m Light Snow 1.00mm precipitation Vertical Visibility of 0ft. 985 Temporary: Visibility 1100. Showers Snow . Broken Clouds 1200ft. Cumulonimbus . Runway 24: Dry snow, 26-50% contamination with 5mm, friction coefficient 0.35. UUWW 010700Z 22006MPS 2700 -SN BKN033 M04/M05 Q0985 R24/450535 TEMPO 1100 SHSN BKN012CB
IFR -4°C / -5°C 220º 10kt 2900m Light Snow 1.00mm precipitation Vertical Visibility of 0ft. 985 Temporary: Visibility 1100. Showers Snow . Broken Clouds 1200ft. Cumulonimbus . Runway 19: Dry snow, 51-100% contamination with 3mm, friction coefficient 0.37. UUWW 010630Z 22005MPS 2900 -SN BKN033 M04/M05 Q0985 R19/490337 TEMPO 1100 SHSN BKN012CB
IFR -4°C / -5°C 220º 10kt 2600m Light Snow 1.00mm precipitation Vertical Visibility of 0ft.
Broken Clouds 3200ft
985 Temporary: Visibility 1100. Showers Snow . Broken Clouds 1200ft. Cumulonimbus . Runway 19: Dry snow, 51-100% contamination with 3mm, friction coefficient 0.37. UUWW 010600Z 22005MPS 2600 -SN FEW013 BKN032 M04/M05 Q0985 R19/490337 TEMPO 1100 SHSN BKN012CB
IFR -4°C / -5°C 220º 10kt 2500m Light Snow 1.00mm precipitation Vertical Visibility of 0ft.
Broken Clouds 3200ft
984 Temporary: Visibility 1100. Showers Snow . Broken Clouds 1200ft. Cumulonimbus . Runway 19: Dry snow, 26-50% contamination with 5mm, friction coefficient 0.37. UUWW 010530Z 22005MPS 2500 -SN FEW011 BKN032 M04/M05 Q0984 R19/450537 TEMPO 1100 SHSN BKN012CB
IFR -3°C / -5°C 220º 10kt 2500m Light Snow 1.00mm precipitation Vertical Visibility of 0ft.
Broken Clouds 3200ft
984 No Significant change. Runway 19: Dry snow, 26-50% contamination with 5mm, friction coefficient 0.37. UUWW 010500Z 22005MPS 2500 -SN FEW013 BKN032 M03/M05 Q0984 R19/450537 NOSIG
IFR -3°C / -5°C 230º 14kt 3200m Light Snow 1.00mm precipitation Vertical Visibility of 0ft.
Broken Clouds 3000ft
984 No Significant change. Runway 24: Dry snow, 51-100% contamination with 5mm, friction coefficient 0.35. UUWW 010430Z 23007MPS 3200 -SN FEW012 BKN030 M03/M05 Q0984 R24/490535 NOSIG
IFR -3°C / -5°C 230º 14kt 3400m Light Snow 1.00mm precipitation Vertical Visibility of 0ft.
Broken Clouds 3100ft
984 No Significant change. Runway 24: Dry snow, 51-100% contamination with 5mm, friction coefficient 0.35. UUWW 010400Z 23007MPS 3400 -SN FEW012 BKN031 M03/M05 Q0984 R24/490535 NOSIG
IFR -3°C / -5°C 230º 14kt 3100m Light Snow 1.00mm precipitation Vertical Visibility of 0ft.
Overcast 3100ft
984 Temporary: Visibility 0700. Heavy Showers Snow . Broken Clouds 1200ft. Cumulonimbus . Runway 24: Dry snow, 51-100% contamination with 5mm, friction coefficient 0.35. UUWW 010330Z 23007MPS 3100 -SN FEW011 OVC031 M03/M05 Q0984 R24/490535 TEMPO 0700 +SHSN BKN012CB

MVFR

-4°C / -7°C

[Daha fazla]
Rüzgar 240º 10kt
Görünürlük >10km
Hava Light Snow 1.00mm precipitation
Bulutlar Vertical Visibility of 0ft.
Basınç 990
Değiştir Temporary: Visibility 1500. Showers Snow . Broken Clouds 1200ft. Cumulonimbus . Runway 19: Dry snow, 11-25% contamination with 5mm, friction coefficient 0.37.
Ham UUWW 011500Z 24005MPS 9999 -SN BKN016 M04/M07 Q0990 R19/420537 TEMPO 1500 SHSN BKN012CB

MVFR

-4°C / -7°C

[Daha fazla]
Rüzgar 240º 10kt
Görünürlük 9000m
Hava Light Snow 1.00mm precipitation
Bulutlar Vertical Visibility of 0ft.
Basınç 989
Değiştir Temporary: Visibility 1500. Showers Snow . Broken Clouds 1200ft. Cumulonimbus . Runway 19: Dry snow, 11-25% contamination with 5mm, friction coefficient 0.37.
Ham UUWW 011430Z 24005MPS 9000 -SN BKN019 M04/M07 Q0989 R19/420537 TEMPO 1500 SHSN BKN012CB

MVFR

-4°C / -7°C

[Daha fazla]
Rüzgar 240º 14kt
Görünürlük 9000m
Hava Light Snow 1.00mm precipitation
Bulutlar Vertical Visibility of 0ft.
Basınç 989
Değiştir Temporary: Visibility 1500. Showers Snow . Broken Clouds 1200ft. Cumulonimbus . Runway 24: Dry snow, 11-25% contamination with 5mm, friction coefficient 0.37.
Ham UUWW 011400Z 24007MPS 9000 -SN BKN030 M04/M07 Q0989 R24/420537 TEMPO 1500 SHSN BKN012CB

MVFR

-4°C / -7°C

[Daha fazla]
Rüzgar 240º 14kt
Görünürlük 8000m
Hava Light Snow 1.00mm precipitation
Bulutlar Vertical Visibility of 0ft.
Basınç 989
Değiştir Temporary: Visibility 1500. Showers Snow . Broken Clouds 1200ft. Cumulonimbus . Runway 24: Dry snow, 11-25% contamination with 5mm, friction coefficient 0.37.
Ham UUWW 011330Z 24007MPS 8000 -SN BKN031 M04/M07 Q0989 R24/420537 TEMPO 1500 SHSN BKN012CB

MVFR

-4°C / -7°C

[Daha fazla]
Rüzgar 240º 14kt
Görünürlük >10km
Hava Light Snow 1.00mm precipitation
Bulutlar Vertical Visibility of 0ft.
Basınç 988
Değiştir No Significant change. Runway 24: Dry snow, 11-25% contamination with 5mm, friction coefficient 0.37.
Ham UUWW 011300Z 24007MPS 9999 -SN BKN016 M04/M07 Q0988 R24/420537 NOSIG

MVFR

-4°C / -7°C

[Daha fazla]
Rüzgar 240º 14kt
Görünürlük >10km
Hava -
Bulutlar Broken Clouds 1900ft
Basınç 988
Değiştir No Significant change. Runway 24: Dry snow, 11-25% contamination with 5mm, friction coefficient 0.37.
Ham UUWW 011230Z 24007MPS 9999 BKN019 M04/M07 Q0988 R24/420537 NOSIG

MVFR

-4°C / -7°C

[Daha fazla]
Rüzgar 240º 14kt
Görünürlük >10km
Hava Light Snow 1.00mm precipitation
Bulutlar Vertical Visibility of 0ft.
Basınç 988
Değiştir No Significant change. Runway 24: Dry snow, 11-25% contamination with 5mm, friction coefficient 0.37.
Ham UUWW 011200Z 24007MPS 9999 -SN OVC021 M04/M07 Q0988 R24/420537 NOSIG

VFR

-4°C / -7°C

[Daha fazla]
Rüzgar 250º 10kt
Görünürlük 9000m
Hava Light Snow 1.00mm precipitation
Bulutlar Vertical Visibility of 0ft.
Basınç 987
Değiştir Temporary: Visibility 1100. Showers Snow . Broken Clouds 1200ft. Cumulonimbus . Runway 19: Dry snow, 26-50% contamination with 5mm, friction coefficient 0.37.
Ham UUWW 011130Z 25005MPS 9000 -SN OVC034 M04/M07 Q0987 R19/450537 TEMPO 1100 SHSN BKN012CB

MVFR

-3°C / -6°C

[Daha fazla]
Rüzgar 240º 10kt
Görünürlük 9000m
Hava Light Snow 1.00mm precipitation
Bulutlar Vertical Visibility of 0ft.
Basınç 987
Değiştir Temporary: Visibility 1100. Showers Snow . Broken Clouds 1200ft. Cumulonimbus . Runway 19: Dry snow, 26-50% contamination with 5mm, friction coefficient 0.37.
Ham UUWW 011100Z 24005MPS 9000 -SN OVC018 M03/M06 Q0987 R19/450537 TEMPO 1100 SHSN BKN012CB

MVFR

-3°C / -6°C

[Daha fazla]
Rüzgar 230º 14kt
Görünürlük 8000m
Hava Light Snow 1.00mm precipitation
Bulutlar Vertical Visibility of 0ft.
Basınç 987
Değiştir Temporary: Visibility 1100. Showers Snow . Broken Clouds 1200ft. Cumulonimbus . Runway 19: Dry snow, 26-50% contamination with 5mm, friction coefficient 0.37.
Ham UUWW 011030Z 23007MPS 8000 -SN OVC017 M03/M06 Q0987 R19/450537 TEMPO 1100 SHSN BKN012CB

MVFR

-3°C / -6°C

[Daha fazla]
Rüzgar 240º 12kt
Görünürlük 8000m
Hava Light Snow 1.00mm precipitation
Bulutlar Vertical Visibility of 0ft.
Basınç 987
Değiştir Temporary: Visibility 1100. Showers Snow . Broken Clouds 1200ft. Cumulonimbus . Runway 19: Dry snow, 26-50% contamination with 5mm, friction coefficient 0.37.
Ham UUWW 011000Z 24006MPS 8000 -SN OVC018 M03/M06 Q0987 R19/450537 TEMPO 1100 SHSN BKN012CB

MVFR

-3°C / -6°C

[Daha fazla]
Rüzgar 230º 12kt
Görünürlük 5000m
Hava Light Snow 1.00mm precipitation
Bulutlar Vertical Visibility of 0ft.
Basınç 987
Değiştir Temporary: Visibility 1100. Showers Snow . Broken Clouds 1200ft. Cumulonimbus . Runway 19: Dry snow, 26-50% contamination with 5mm, friction coefficient 0.37.
Ham UUWW 010930Z 23006MPS 5000 -SN OVC017 M03/M06 Q0987 R19/450537 TEMPO 1100 SHSN BKN012CB

MVFR

-3°C / -6°C

[Daha fazla]
Rüzgar 230º 10kt
Görünürlük 4900m
Hava Light Snow 1.00mm precipitation
Bulutlar Vertical Visibility of 0ft.
Basınç 986
Değiştir Temporary: Visibility 1100. Showers Snow . Broken Clouds 1200ft. Cumulonimbus . Runway 19: Dry snow, 26-50% contamination with 5mm, friction coefficient 0.37.
Ham UUWW 010900Z 23005MPS 4900 -SN OVC017 M03/M06 Q0986 R19/450537 TEMPO 1100 SHSN BKN012CB

IFR

-3°C / -6°C

[Daha fazla]
Rüzgar 230º 14kt
Görünürlük 2800m
Hava Light Snow 1.00mm precipitation
Bulutlar Vertical Visibility of 0ft.
Basınç 986
Değiştir Temporary: Visibility 1100. Showers Snow . Broken Clouds 1200ft. Cumulonimbus . Runway 24: Dry snow, 26-50% contamination with 5mm, friction coefficient 0.35.
Ham UUWW 010830Z 23007MPS 2800 -SN BKN011 M03/M06 Q0986 R24/450535 TEMPO 1100 SHSN BKN012CB

IFR

-3°C / -5°C

[Daha fazla]
Rüzgar 230º 12kt
Görünürlük 2300m
Hava Light Snow 1.00mm precipitation
Bulutlar Vertical Visibility of 0ft.
Basınç 986
Değiştir Temporary: Visibility 1100. Showers Snow . Broken Clouds 1200ft. Cumulonimbus . Runway 24: Dry snow, 26-50% contamination with 5mm, friction coefficient 0.35.
Ham UUWW 010800Z 23006MPS 2300 -SN BKN013 M03/M05 Q0986 R24/450535 TEMPO 1100 SHSN BKN012CB

IFR

-3°C / -5°C

[Daha fazla]
Rüzgar 230º 12kt
Görünürlük 2200m
Hava Light Snow 1.00mm precipitation
Bulutlar Vertical Visibility of 0ft.
Basınç 986
Değiştir Temporary: Visibility 1100. Showers Snow . Broken Clouds 1200ft. Cumulonimbus . Runway 24: Dry snow, 26-50% contamination with 5mm, friction coefficient 0.35.
Ham UUWW 010730Z 23006MPS 2200 -SN BKN033 M03/M05 Q0986 R24/450535 TEMPO 1100 SHSN BKN012CB

IFR

-4°C / -5°C

[Daha fazla]
Rüzgar 220º 12kt
Görünürlük 2700m
Hava Light Snow 1.00mm precipitation
Bulutlar Vertical Visibility of 0ft.
Basınç 985
Değiştir Temporary: Visibility 1100. Showers Snow . Broken Clouds 1200ft. Cumulonimbus . Runway 24: Dry snow, 26-50% contamination with 5mm, friction coefficient 0.35.
Ham UUWW 010700Z 22006MPS 2700 -SN BKN033 M04/M05 Q0985 R24/450535 TEMPO 1100 SHSN BKN012CB

IFR

-4°C / -5°C

[Daha fazla]
Rüzgar 220º 10kt
Görünürlük 2900m
Hava Light Snow 1.00mm precipitation
Bulutlar Vertical Visibility of 0ft.
Basınç 985
Değiştir Temporary: Visibility 1100. Showers Snow . Broken Clouds 1200ft. Cumulonimbus . Runway 19: Dry snow, 51-100% contamination with 3mm, friction coefficient 0.37.
Ham UUWW 010630Z 22005MPS 2900 -SN BKN033 M04/M05 Q0985 R19/490337 TEMPO 1100 SHSN BKN012CB

IFR

-4°C / -5°C

[Daha fazla]
Rüzgar 220º 10kt
Görünürlük 2600m
Hava Light Snow 1.00mm precipitation
Bulutlar Vertical Visibility of 0ft.
Broken Clouds 3200ft
Basınç 985
Değiştir Temporary: Visibility 1100. Showers Snow . Broken Clouds 1200ft. Cumulonimbus . Runway 19: Dry snow, 51-100% contamination with 3mm, friction coefficient 0.37.
Ham UUWW 010600Z 22005MPS 2600 -SN FEW013 BKN032 M04/M05 Q0985 R19/490337 TEMPO 1100 SHSN BKN012CB

IFR

-4°C / -5°C

[Daha fazla]
Rüzgar 220º 10kt
Görünürlük 2500m
Hava Light Snow 1.00mm precipitation
Bulutlar Vertical Visibility of 0ft.
Broken Clouds 3200ft
Basınç 984
Değiştir Temporary: Visibility 1100. Showers Snow . Broken Clouds 1200ft. Cumulonimbus . Runway 19: Dry snow, 26-50% contamination with 5mm, friction coefficient 0.37.
Ham UUWW 010530Z 22005MPS 2500 -SN FEW011 BKN032 M04/M05 Q0984 R19/450537 TEMPO 1100 SHSN BKN012CB

IFR

-3°C / -5°C

[Daha fazla]
Rüzgar 220º 10kt
Görünürlük 2500m
Hava Light Snow 1.00mm precipitation
Bulutlar Vertical Visibility of 0ft.
Broken Clouds 3200ft
Basınç 984
Değiştir No Significant change. Runway 19: Dry snow, 26-50% contamination with 5mm, friction coefficient 0.37.
Ham UUWW 010500Z 22005MPS 2500 -SN FEW013 BKN032 M03/M05 Q0984 R19/450537 NOSIG

IFR

-3°C / -5°C

[Daha fazla]
Rüzgar 230º 14kt
Görünürlük 3200m
Hava Light Snow 1.00mm precipitation
Bulutlar Vertical Visibility of 0ft.
Broken Clouds 3000ft
Basınç 984
Değiştir No Significant change. Runway 24: Dry snow, 51-100% contamination with 5mm, friction coefficient 0.35.
Ham UUWW 010430Z 23007MPS 3200 -SN FEW012 BKN030 M03/M05 Q0984 R24/490535 NOSIG

IFR

-3°C / -5°C

[Daha fazla]
Rüzgar 230º 14kt
Görünürlük 3400m
Hava Light Snow 1.00mm precipitation
Bulutlar Vertical Visibility of 0ft.
Broken Clouds 3100ft
Basınç 984
Değiştir No Significant change. Runway 24: Dry snow, 51-100% contamination with 5mm, friction coefficient 0.35.
Ham UUWW 010400Z 23007MPS 3400 -SN FEW012 BKN031 M03/M05 Q0984 R24/490535 NOSIG

IFR

-3°C / -5°C

[Daha fazla]
Rüzgar 230º 14kt
Görünürlük 3100m
Hava Light Snow 1.00mm precipitation
Bulutlar Vertical Visibility of 0ft.
Overcast 3100ft
Basınç 984
Değiştir Temporary: Visibility 0700. Heavy Showers Snow . Broken Clouds 1200ft. Cumulonimbus . Runway 24: Dry snow, 51-100% contamination with 5mm, friction coefficient 0.35.
Ham UUWW 010330Z 23007MPS 3100 -SN FEW011 OVC031 M03/M05 Q0984 R24/490535 TEMPO 0700 +SHSN BKN012CB

55.6°K 37.27°D (UUWW) için TAF

From till


Maximum Temperature -2ºC on . Minimum Temperature -9ºC on .
From till Wind 250º 14kt. Visibility 6000m. Light Snow . Broken Clouds 1600ft.
Temporarly from till Wind 270º 16kt. Gust 29kt. Visibility 901.230m. Heavy Showers Snow blowing Snow . Broken Clouds 500ft. Broken Clouds 1600ft.
Becoming from till Wind 190º 12kt. Visibility 6000m. Light Snow . Overcast 700ft.
Temporarly from till Wind 160º 16kt. Gust 25kt. Visibility 1200m. Showers Snow . Broken Clouds 500ft. Broken Clouds 1200ft.
With 40% probability, Temporarly from till Light freezing Rain . Overcast 300ft.

Ham: TAF UUWW 011358Z 0115/0215 25007MPS 6000 -SN BKN016 TXM02/0215Z TNM09/0202Z TEMPO 0115/0118 27008G15MPS 0900 +SHSN BLSN BKN005 BKN016CB BECMG 0206/0209 19006MPS OVC007 TEMPO 0210/0215 16008G13MPS 1200 SHSN BKN005 BKN012CB PROB40 TEMPO 0212/0215 -FZRA OVC003

55.6°K 37.27°D için şu anki uydu ve yağmur görüntüleri

Konum işaretleyici 55.6°K 37.27°D üzerine yerleştirilir. [Daha fazla]

Gerçek zamanlı uydu görüntüsü gündüz süresince görülür ışığı gece süresince kızılötesi ışınım ile birleştirir. Gece kızılötesi ışınım sıcaklık farklarını algılayabildiğinden dolayı görüntü karanlık değildir. Ancak düşük bulutları ve sisi yer sıcaklığından ayırmak zordur ve bu nedenle gece boyunca neredeyse görünmez olabilirler. Avrupa için Meteosat uydu görüntüleri gerçek zamanlı olarak her 5 dakikada bir güncellenir. GOES-16/GOES-17 (Kuzey ve Güney Amerika) ve Himawari (Asya) görüntüleri her 10 dakikada bir güncellenir.

Copyright 2021 EUMETSAT / meteoblue. / Copyright 2021 meteoblue

55.6°K 37.27°D için radar ve yağış nowcast

Çise
Hafif
Orta
Ağır
Çok ağır
Selamlamak

Konum işaretleyicisi 55.6°K 37.27°D üzerine yerleştirilir. Bu animasyon son saat içerisindeki yağış radarını ve 1h tahminini gösterir. Hafif yağmur veya kar yağışı radar için görünmez olabilir. Yağış şiddeti açık mavi ile koyu mor arasındaki renklerle kodlanmıştır.